sensor_id;sensor_type;location;lat;lon;timestamp;P1;durP1;ratioP1;P2;durP2;ratioP2
11052;SDS011;55230;42.602;23.470;2022-08-11T00:00:56;8.93;;;6.43;;
11052;SDS011;55230;42.602;23.470;2022-08-11T00:03:24;7.63;;;6.73;;
11052;SDS011;55230;42.602;23.470;2022-08-11T00:05:53;7.70;;;7.00;;
11052;SDS011;55230;42.602;23.470;2022-08-11T00:08:22;8.03;;;7.13;;
11052;SDS011;55230;42.602;23.470;2022-08-11T00:10:51;7.63;;;6.23;;
11052;SDS011;55230;42.602;23.470;2022-08-11T00:13:20;7.87;;;6.93;;
11052;SDS011;55230;42.602;23.470;2022-08-11T00:15:48;7.17;;;6.47;;
11052;SDS011;55230;42.602;23.470;2022-08-11T00:18:16;8.80;;;7.20;;
11052;SDS011;55230;42.602;23.470;2022-08-11T00:20:43;7.60;;;6.83;;
11052;SDS011;55230;42.602;23.470;2022-08-11T00:23:13;8.20;;;7.50;;
11052;SDS011;55230;42.602;23.470;2022-08-11T00:25:42;8.23;;;7.47;;
11052;SDS011;55230;42.602;23.470;2022-08-11T00:28:24;7.93;;;7.23;;
11052;SDS011;55230;42.602;23.470;2022-08-11T00:30:52;8.27;;;7.47;;
11052;SDS011;55230;42.602;23.470;2022-08-11T00:33:21;8.40;;;7.60;;
11052;SDS011;55230;42.602;23.470;2022-08-11T00:35:50;8.00;;;7.30;;
11052;SDS011;55230;42.602;23.470;2022-08-11T00:38:24;9.70;;;7.80;;
11052;SDS011;55230;42.602;23.470;2022-08-11T00:40:56;7.87;;;7.10;;
11052;SDS011;55230;42.602;23.470;2022-08-11T00:43:37;10.20;;;7.70;;
11052;SDS011;55230;42.602;23.470;2022-08-11T00:46:15;8.10;;;7.30;;
11052;SDS011;55230;42.602;23.470;2022-08-11T00:48:52;8.10;;;7.40;;
11052;SDS011;55230;42.602;23.470;2022-08-11T00:51:35;8.00;;;7.23;;
11052;SDS011;55230;42.602;23.470;2022-08-11T00:54:18;7.93;;;7.23;;
11052;SDS011;55230;42.602;23.470;2022-08-11T00:57:13;9.13;;;7.60;;
11052;SDS011;55230;42.602;23.470;2022-08-11T01:00:03;7.83;;;7.13;;
11052;SDS011;55230;42.602;23.470;2022-08-11T01:08:57;9.17;;;8.27;;
11052;SDS011;55230;42.602;23.470;2022-08-11T01:14:56;8.57;;;7.83;;
11052;SDS011;55230;42.602;23.470;2022-08-11T01:27:25;9.30;;;8.40;;
11052;SDS011;55230;42.602;23.470;2022-08-11T01:30:19;8.80;;;8.10;;
11052;SDS011;55230;42.602;23.470;2022-08-11T01:36:30;9.20;;;8.40;;
11052;SDS011;55230;42.602;23.470;2022-08-11T01:39:39;8.57;;;7.77;;
11052;SDS011;55230;42.602;23.470;2022-08-11T01:42:39;9.17;;;8.37;;
11052;SDS011;55230;42.602;23.470;2022-08-11T01:45:55;9.13;;;8.23;;
11052;SDS011;55230;42.602;23.470;2022-08-11T01:48:29;9.43;;;8.53;;
11052;SDS011;55230;42.602;23.470;2022-08-11T01:51:16;9.03;;;8.13;;
11052;SDS011;55230;42.602;23.470;2022-08-11T01:53:55;9.10;;;8.30;;
11052;SDS011;55230;42.602;23.470;2022-08-11T01:56:40;8.77;;;7.90;;
11052;SDS011;55230;42.602;23.470;2022-08-11T01:59:22;8.90;;;8.00;;
11052;SDS011;55230;42.602;23.470;2022-08-11T02:01:57;9.20;;;8.30;;
11052;SDS011;55230;42.602;23.470;2022-08-11T02:05:09;9.70;;;8.37;;
11052;SDS011;55230;42.602;23.470;2022-08-11T02:07:49;9.97;;;8.30;;
11052;SDS011;55230;42.602;23.470;2022-08-11T02:10:25;9.00;;;8.20;;
11052;SDS011;55230;42.602;23.470;2022-08-11T02:13:14;8.93;;;8.13;;
11052;SDS011;55230;42.602;23.470;2022-08-11T02:15:49;9.47;;;7.80;;
11052;SDS011;55230;42.602;23.470;2022-08-11T02:18:22;9.07;;;8.17;;
11052;SDS011;55230;42.602;23.470;2022-08-11T02:21:12;9.00;;;8.20;;
11052;SDS011;55230;42.602;23.470;2022-08-11T02:24:02;9.17;;;8.37;;
11052;SDS011;55230;42.602;23.470;2022-08-11T02:26:37;9.47;;;8.33;;
11052;SDS011;55230;42.602;23.470;2022-08-11T02:29:10;8.83;;;8.00;;
11052;SDS011;55230;42.602;23.470;2022-08-11T02:31:52;9.33;;;8.43;;
11052;SDS011;55230;42.602;23.470;2022-08-11T02:34:44;8.90;;;8.10;;
11052;SDS011;55230;42.602;23.470;2022-08-11T02:37:21;9.53;;;8.63;;
11052;SDS011;55230;42.602;23.470;2022-08-11T02:40:01;8.23;;;7.53;;
11052;SDS011;55230;42.602;23.470;2022-08-11T02:42:39;8.87;;;8.07;;
11052;SDS011;55230;42.602;23.470;2022-08-11T02:45:27;9.03;;;8.23;;
11052;SDS011;55230;42.602;23.470;2022-08-11T02:48:05;9.17;;;8.27;;
11052;SDS011;55230;42.602;23.470;2022-08-11T02:51:01;9.80;;;8.47;;
11052;SDS011;55230;42.602;23.470;2022-08-11T02:53:36;10.97;;;8.60;;
11052;SDS011;55230;42.602;23.470;2022-08-11T02:56:15;8.93;;;8.17;;
11052;SDS011;55230;42.602;23.470;2022-08-11T02:58:55;9.23;;;8.20;;
11052;SDS011;55230;42.602;23.470;2022-08-11T03:01:47;9.80;;;8.80;;
11052;SDS011;55230;42.602;23.470;2022-08-11T03:04:20;9.57;;;8.60;;
11052;SDS011;55230;42.602;23.470;2022-08-11T03:07:04;10.33;;;8.63;;
11052;SDS011;55230;42.602;23.470;2022-08-11T03:09:41;10.17;;;9.03;;
11052;SDS011;55230;42.602;23.470;2022-08-11T03:12:13;10.63;;;9.53;;
11052;SDS011;55230;42.602;23.470;2022-08-11T03:15:11;10.13;;;9.07;;
11052;SDS011;55230;42.602;23.470;2022-08-11T03:18:03;9.33;;;8.43;;
11052;SDS011;55230;42.602;23.470;2022-08-11T03:20:50;10.47;;;9.17;;
11052;SDS011;55230;42.602;23.470;2022-08-11T03:23:26;11.23;;;9.47;;
11052;SDS011;55230;42.602;23.470;2022-08-11T03:25:59;10.43;;;9.43;;
11052;SDS011;55230;42.602;23.470;2022-08-11T03:28:36;10.00;;;9.10;;
11052;SDS011;55230;42.602;23.470;2022-08-11T03:31:17;10.10;;;9.20;;
11052;SDS011;55230;42.602;23.470;2022-08-11T03:33:50;9.60;;;8.70;;
11052;SDS011;55230;42.602;23.470;2022-08-11T03:39:36;10.83;;;9.43;;
11052;SDS011;55230;42.602;23.470;2022-08-11T03:42:23;9.90;;;9.00;;
11052;SDS011;55230;42.602;23.470;2022-08-11T03:45:04;12.83;;;10.07;;
11052;SDS011;55230;42.602;23.470;2022-08-11T03:47:47;10.63;;;9.53;;
11052;SDS011;55230;42.602;23.470;2022-08-11T03:50:31;10.83;;;9.73;;
11052;SDS011;55230;42.602;23.470;2022-08-11T03:53:15;9.63;;;8.70;;
11052;SDS011;55230;42.602;23.470;2022-08-11T03:56:10;10.13;;;9.17;;
11052;SDS011;55230;42.602;23.470;2022-08-11T03:59:05;9.87;;;8.63;;
11052;SDS011;55230;42.602;23.470;2022-08-11T04:05:18;9.30;;;8.40;;
11052;SDS011;55230;42.602;23.470;2022-08-11T04:11:15;8.80;;;8.00;;
11052;SDS011;55230;42.602;23.470;2022-08-11T04:17:43;8.33;;;7.63;;
11052;SDS011;55230;42.602;23.470;2022-08-11T04:20:27;9.20;;;8.30;;
11052;SDS011;55230;42.602;23.470;2022-08-11T04:23:17;7.57;;;6.97;;
11052;SDS011;55230;42.602;23.470;2022-08-11T04:28:48;7.90;;;7.10;;
11052;SDS011;55230;42.602;23.470;2022-08-11T04:31:32;7.30;;;6.70;;
11052;SDS011;55230;42.602;23.470;2022-08-11T04:34:04;7.90;;;6.83;;
11052;SDS011;55230;42.602;23.470;2022-08-11T04:45:53;8.67;;;7.77;;
11052;SDS011;55230;42.602;23.470;2022-08-11T04:48:37;8.90;;;8.00;;
11052;SDS011;55230;42.602;23.470;2022-08-11T04:58:43;7.60;;;6.90;;
11052;SDS011;55230;42.602;23.470;2022-08-11T05:01:38;11.53;;;7.83;;
11052;SDS011;55230;42.602;23.470;2022-08-11T05:04:26;7.40;;;6.70;;
11052;SDS011;55230;42.602;23.470;2022-08-11T05:10:55;7.23;;;6.57;;
11052;SDS011;55230;42.602;23.470;2022-08-11T05:13:33;7.80;;;7.10;;
11052;SDS011;55230;42.602;23.470;2022-08-11T05:16:20;7.10;;;6.40;;
11052;SDS011;55230;42.602;23.470;2022-08-11T05:19:14;7.77;;;6.67;;
11052;SDS011;55230;42.602;23.470;2022-08-11T05:21:59;6.90;;;6.20;;
11052;SDS011;55230;42.602;23.470;2022-08-11T05:24:46;7.50;;;6.63;;
11052;SDS011;55230;42.602;23.470;2022-08-11T05:27:37;7.57;;;6.87;;
11052;SDS011;55230;42.602;23.470;2022-08-11T05:30:27;7.90;;;7.10;;
11052;SDS011;55230;42.602;23.470;2022-08-11T05:33:18;8.57;;;7.07;;
11052;SDS011;55230;42.602;23.470;2022-08-11T05:36:07;8.43;;;7.03;;
11052;SDS011;55230;42.602;23.470;2022-08-11T05:38:40;9.03;;;7.37;;
11052;SDS011;55230;42.602;23.470;2022-08-11T05:41:37;11.37;;;7.80;;
11052;SDS011;55230;42.602;23.470;2022-08-11T05:44:24;7.83;;;7.03;;
11052;SDS011;55230;42.602;23.470;2022-08-11T05:47:11;7.43;;;6.70;;
11052;SDS011;55230;42.602;23.470;2022-08-11T05:50:07;7.67;;;6.80;;
11052;SDS011;55230;42.602;23.470;2022-08-11T05:52:52;9.07;;;6.97;;
11052;SDS011;55230;42.602;23.470;2022-08-11T05:55:38;8.37;;;6.80;;
11052;SDS011;55230;42.602;23.470;2022-08-11T05:58:23;7.53;;;6.50;;
11052;SDS011;55230;42.602;23.470;2022-08-11T06:00:53;8.77;;;6.30;;
11052;SDS011;55230;42.602;23.470;2022-08-11T06:03:21;7.23;;;6.53;;
11052;SDS011;55230;42.602;23.470;2022-08-11T06:05:52;7.53;;;6.80;;
11052;SDS011;55230;42.602;23.470;2022-08-11T06:08:25;6.90;;;6.30;;
11052;SDS011;55230;42.602;23.470;2022-08-11T06:10:55;8.40;;;6.27;;
11052;SDS011;55230;42.602;23.470;2022-08-11T06:13:26;7.50;;;6.30;;
11052;SDS011;55230;42.602;23.470;2022-08-11T06:15:54;7.80;;;6.77;;
11052;SDS011;55230;42.602;23.470;2022-08-11T06:18:23;6.67;;;6.00;;
11052;SDS011;55230;42.602;23.470;2022-08-11T06:20:51;7.07;;;6.47;;
11052;SDS011;55230;42.602;23.470;2022-08-11T06:23:19;7.23;;;6.47;;
11052;SDS011;55230;42.602;23.470;2022-08-11T06:25:47;7.17;;;6.33;;
11052;SDS011;55230;42.602;23.470;2022-08-11T06:28:16;7.80;;;6.23;;
11052;SDS011;55230;42.602;23.470;2022-08-11T06:30:46;7.37;;;6.40;;
11052;SDS011;55230;42.602;23.470;2022-08-11T06:33:16;7.33;;;6.40;;
11052;SDS011;55230;42.602;23.470;2022-08-11T06:35:51;6.70;;;6.10;;
11052;SDS011;55230;42.602;23.470;2022-08-11T06:38:35;6.77;;;6.17;;
11052;SDS011;55230;42.602;23.470;2022-08-11T06:41:13;8.67;;;6.60;;
11052;SDS011;55230;42.602;23.470;2022-08-11T06:44:06;6.40;;;5.90;;
11052;SDS011;55230;42.602;23.470;2022-08-11T06:46:42;8.07;;;6.73;;
11052;SDS011;55230;42.602;23.470;2022-08-11T06:49:13;7.80;;;6.90;;
11052;SDS011;55230;42.602;23.470;2022-08-11T06:52:01;10.63;;;7.20;;
11052;SDS011;55230;42.602;23.470;2022-08-11T06:54:32;8.80;;;7.90;;
11052;SDS011;55230;42.602;23.470;2022-08-11T06:57:00;7.97;;;7.27;;
11052;SDS011;55230;42.602;23.470;2022-08-11T06:59:48;7.77;;;7.07;;
11052;SDS011;55230;42.602;23.470;2022-08-11T07:02:30;8.53;;;6.97;;
11052;SDS011;55230;42.602;23.470;2022-08-11T07:05:01;9.10;;;7.00;;
11052;SDS011;55230;42.602;23.470;2022-08-11T07:11:10;7.83;;;6.00;;
11052;SDS011;55230;42.602;23.470;2022-08-11T07:14:16;7.65;;;5.55;;
11052;SDS011;55230;42.602;23.470;2022-08-11T07:17:05;6.93;;;6.23;;
11052;SDS011;55230;42.602;23.470;2022-08-11T07:19:36;6.70;;;5.83;;
11052;SDS011;55230;42.602;23.470;2022-08-11T07:22:24;7.90;;;6.07;;
11052;SDS011;55230;42.602;23.470;2022-08-11T07:25:14;7.63;;;6.28;;
11052;SDS011;55230;42.602;23.470;2022-08-11T07:28:00;5.80;;;5.20;;
11052;SDS011;55230;42.602;23.470;2022-08-11T07:30:47;7.27;;;6.57;;
11052;SDS011;55230;42.602;23.470;2022-08-11T07:33:24;7.57;;;6.33;;
11052;SDS011;55230;42.602;23.470;2022-08-11T07:35:56;6.60;;;6.00;;
11052;SDS011;55230;42.602;23.470;2022-08-11T07:38:27;5.70;;;5.10;;
11052;SDS011;55230;42.602;23.470;2022-08-11T07:41:08;6.43;;;4.80;;
11052;SDS011;55230;42.602;23.470;2022-08-11T07:43:36;5.40;;;4.90;;
11052;SDS011;55230;42.602;23.470;2022-08-11T07:46:04;5.40;;;5.00;;
11052;SDS011;55230;42.602;23.470;2022-08-11T07:48:50;7.83;;;5.13;;
11052;SDS011;55230;42.602;23.470;2022-08-11T07:51:35;6.40;;;4.85;;
11052;SDS011;55230;42.602;23.470;2022-08-11T07:54:23;5.70;;;4.97;;
11052;SDS011;55230;42.602;23.470;2022-08-11T07:56:51;7.95;;;5.32;;
11052;SDS011;55230;42.602;23.470;2022-08-11T07:59:19;6.78;;;5.13;;
11052;SDS011;55230;42.602;23.470;2022-08-11T08:02:04;4.95;;;4.55;;
11052;SDS011;55230;42.602;23.470;2022-08-11T08:04:49;5.15;;;4.65;;
11052;SDS011;55230;42.602;23.470;2022-08-11T08:07:34;5.28;;;4.78;;
11052;SDS011;55230;42.602;23.470;2022-08-11T08:10:22;4.72;;;4.32;;
11052;SDS011;55230;42.602;23.470;2022-08-11T08:13:06;11.60;;;4.90;;
11052;SDS011;55230;42.602;23.470;2022-08-11T08:15:50;5.03;;;4.43;;
11052;SDS011;55230;42.602;23.470;2022-08-11T08:18:36;4.28;;;3.97;;
11052;SDS011;55230;42.602;23.470;2022-08-11T08:21:04;4.93;;;4.13;;
11052;SDS011;55230;42.602;23.470;2022-08-11T08:23:37;4.72;;;4.15;;
11052;SDS011;55230;42.602;23.470;2022-08-11T08:26:06;4.75;;;4.32;;
11052;SDS011;55230;42.602;23.470;2022-08-11T08:28:56;5.22;;;4.80;;
11052;SDS011;55230;42.602;23.470;2022-08-11T08:31:41;5.63;;;5.13;;
11052;SDS011;55230;42.602;23.470;2022-08-11T08:34:10;5.00;;;4.60;;
11052;SDS011;55230;42.602;23.470;2022-08-11T08:36:41;5.40;;;4.88;;
11052;SDS011;55230;42.602;23.470;2022-08-11T08:39:08;5.20;;;4.80;;
11052;SDS011;55230;42.602;23.470;2022-08-11T08:41:36;6.30;;;4.75;;
11052;SDS011;55230;42.602;23.470;2022-08-11T08:44:07;5.72;;;4.90;;
11052;SDS011;55230;42.602;23.470;2022-08-11T08:46:35;13.02;;;8.15;;
11052;SDS011;55230;42.602;23.470;2022-08-11T08:49:06;11.57;;;9.70;;
11052;SDS011;55230;42.602;23.470;2022-08-11T08:51:37;5.82;;;4.70;;
11052;SDS011;55230;42.602;23.470;2022-08-11T08:54:06;8.45;;;7.57;;
11052;SDS011;55230;42.602;23.470;2022-08-11T08:56:38;7.03;;;4.80;;
11052;SDS011;55230;42.602;23.470;2022-08-11T08:59:06;4.55;;;4.18;;
11052;SDS011;55230;42.602;23.470;2022-08-11T09:01:37;4.82;;;4.43;;
11052;SDS011;55230;42.602;23.470;2022-08-11T09:04:08;4.70;;;4.30;;
11052;SDS011;55230;42.602;23.470;2022-08-11T09:06:36;4.78;;;4.25;;
11052;SDS011;55230;42.602;23.470;2022-08-11T09:09:06;4.95;;;4.45;;
11052;SDS011;55230;42.602;23.470;2022-08-11T09:11:34;4.70;;;4.28;;
11052;SDS011;55230;42.602;23.470;2022-08-11T09:14:22;4.82;;;4.43;;
11052;SDS011;55230;42.602;23.470;2022-08-11T09:17:10;4.57;;;4.15;;
11052;SDS011;55230;42.602;23.470;2022-08-11T09:19:37;4.65;;;4.30;;
11052;SDS011;55230;42.602;23.470;2022-08-11T09:22:04;4.53;;;4.13;;
11052;SDS011;55230;42.602;23.470;2022-08-11T09:24:49;8.93;;;6.43;;
11052;SDS011;55230;42.602;23.470;2022-08-11T09:27:49;4.63;;;4.32;;
11052;SDS011;55230;42.602;23.470;2022-08-11T09:30:19;29.10;;;15.40;;
11052;SDS011;55230;42.602;23.470;2022-08-11T09:32:46;8.95;;;8.02;;
11052;SDS011;55230;42.602;23.470;2022-08-11T09:35:13;6.18;;;4.28;;
11052;SDS011;55230;42.602;23.470;2022-08-11T09:37:42;9.88;;;8.85;;
11052;SDS011;55230;42.602;23.470;2022-08-11T09:40:26;4.90;;;4.50;;
11052;SDS011;55230;42.602;23.470;2022-08-11T09:42:58;4.72;;;4.20;;
11052;SDS011;55230;42.602;23.470;2022-08-11T09:45:46;4.70;;;4.30;;
11052;SDS011;55230;42.602;23.470;2022-08-11T09:48:15;5.10;;;4.60;;
11052;SDS011;55230;42.602;23.470;2022-08-11T09:50:43;4.88;;;4.35;;
11052;SDS011;55230;42.602;23.470;2022-08-11T09:53:11;4.53;;;3.83;;
11052;SDS011;55230;42.602;23.470;2022-08-11T09:55:40;4.25;;;3.95;;
11052;SDS011;55230;42.602;23.470;2022-08-11T09:58:08;4.65;;;4.07;;
11052;SDS011;55230;42.602;23.470;2022-08-11T10:00:41;4.05;;;3.75;;
11052;SDS011;55230;42.602;23.470;2022-08-11T10:03:10;4.88;;;4.35;;
11052;SDS011;55230;42.602;23.470;2022-08-11T10:05:38;4.32;;;3.92;;
11052;SDS011;55230;42.602;23.470;2022-08-11T10:08:27;4.47;;;3.90;;
11052;SDS011;55230;42.602;23.470;2022-08-11T10:10:57;4.38;;;4.07;;
11052;SDS011;55230;42.602;23.470;2022-08-11T10:13:25;4.07;;;3.67;;
11052;SDS011;55230;42.602;23.470;2022-08-11T10:15:58;6.45;;;4.65;;
11052;SDS011;55230;42.602;23.470;2022-08-11T10:18:34;6.45;;;4.38;;
11052;SDS011;55230;42.602;23.470;2022-08-11T10:21:16;4.85;;;4.35;;
11052;SDS011;55230;42.602;23.470;2022-08-11T10:23:52;5.38;;;4.78;;
11052;SDS011;55230;42.602;23.470;2022-08-11T10:26:37;5.28;;;4.88;;
11052;SDS011;55230;42.602;23.470;2022-08-11T10:29:19;5.50;;;4.97;;
11052;SDS011;55230;42.602;23.470;2022-08-11T10:32:05;6.28;;;4.80;;
11052;SDS011;55230;42.602;23.470;2022-08-11T10:34:52;5.65;;;4.82;;
11052;SDS011;55230;42.602;23.470;2022-08-11T10:37:21;6.63;;;5.10;;
11052;SDS011;55230;42.602;23.470;2022-08-11T10:39:50;5.18;;;4.78;;
11052;SDS011;55230;42.602;23.470;2022-08-11T10:42:20;4.85;;;4.43;;
11052;SDS011;55230;42.602;23.470;2022-08-11T10:45:05;5.55;;;4.95;;
11052;SDS011;55230;42.602;23.470;2022-08-11T10:47:54;5.07;;;4.60;;
11052;SDS011;55230;42.602;23.470;2022-08-11T10:50:23;5.50;;;5.00;;
11052;SDS011;55230;42.602;23.470;2022-08-11T10:53:08;6.53;;;5.18;;
11052;SDS011;55230;42.602;23.470;2022-08-11T10:55:52;5.63;;;4.80;;
11052;SDS011;55230;42.602;23.470;2022-08-11T10:58:38;5.22;;;4.80;;
11052;SDS011;55230;42.602;23.470;2022-08-11T11:01:14;5.63;;;5.13;;
11052;SDS011;55230;42.602;23.470;2022-08-11T11:03:41;6.57;;;5.93;;
11052;SDS011;55230;42.602;23.470;2022-08-11T11:06:15;6.43;;;5.85;;
11052;SDS011;55230;42.602;23.470;2022-08-11T11:08:51;5.90;;;5.40;;
11052;SDS011;55230;42.602;23.470;2022-08-11T11:11:22;6.65;;;5.43;;
11052;SDS011;55230;42.602;23.470;2022-08-11T11:14:13;5.93;;;5.43;;
11052;SDS011;55230;42.602;23.470;2022-08-11T11:17:00;6.20;;;5.70;;
11052;SDS011;55230;42.602;23.470;2022-08-11T11:19:45;8.30;;;5.72;;
11052;SDS011;55230;42.602;23.470;2022-08-11T11:22:19;5.93;;;5.28;;
11052;SDS011;55230;42.602;23.470;2022-08-11T11:25:14;5.95;;;5.38;;
11052;SDS011;55230;42.602;23.470;2022-08-11T11:27:50;6.15;;;5.57;;
11052;SDS011;55230;42.602;23.470;2022-08-11T11:30:26;6.05;;;5.18;;
11052;SDS011;55230;42.602;23.470;2022-08-11T11:33:01;6.45;;;5.22;;
11052;SDS011;55230;42.602;23.470;2022-08-11T11:35:38;4.93;;;4.32;;
11052;SDS011;55230;42.602;23.470;2022-08-11T11:38:13;4.78;;;4.15;;
11052;SDS011;55230;42.602;23.470;2022-08-11T11:40:40;4.32;;;4.03;;
11052;SDS011;55230;42.602;23.470;2022-08-11T11:43:07;4.70;;;4.30;;
11052;SDS011;55230;42.602;23.470;2022-08-11T11:45:35;5.97;;;4.18;;
11052;SDS011;55230;42.602;23.470;2022-08-11T11:48:03;4.97;;;4.45;;
11052;SDS011;55230;42.602;23.470;2022-08-11T11:50:32;6.50;;;4.38;;
11052;SDS011;55230;42.602;23.470;2022-08-11T11:53:00;4.57;;;4.18;;
11052;SDS011;55230;42.602;23.470;2022-08-11T11:55:31;5.43;;;3.85;;
11052;SDS011;55230;42.602;23.470;2022-08-11T11:57:59;5.85;;;4.10;;
11052;SDS011;55230;42.602;23.470;2022-08-11T12:00:45;5.10;;;3.90;;
11052;SDS011;55230;42.602;23.470;2022-08-11T12:03:31;4.65;;;4.28;;
11052;SDS011;55230;42.602;23.470;2022-08-11T12:05:59;5.43;;;4.38;;
11052;SDS011;55230;42.602;23.470;2022-08-11T12:08:27;4.63;;;4.18;;
11052;SDS011;55230;42.602;23.470;2022-08-11T12:10:57;4.10;;;3.70;;
11052;SDS011;55230;42.602;23.470;2022-08-11T12:13:44;4.50;;;4.10;;
11052;SDS011;55230;42.602;23.470;2022-08-11T12:16:14;4.60;;;4.15;;
11052;SDS011;55230;42.602;23.470;2022-08-11T12:18:45;5.00;;;4.50;;
11052;SDS011;55230;42.602;23.470;2022-08-11T12:21:13;4.93;;;4.30;;
11052;SDS011;55230;42.602;23.470;2022-08-11T12:23:41;5.10;;;4.55;;
11052;SDS011;55230;42.602;23.470;2022-08-11T12:26:29;5.07;;;4.68;;
11052;SDS011;55230;42.602;23.470;2022-08-11T12:29:15;6.82;;;4.72;;
11052;SDS011;55230;42.602;23.470;2022-08-11T12:31:44;5.07;;;4.68;;
11052;SDS011;55230;42.602;23.470;2022-08-11T12:34:13;4.43;;;4.03;;
11052;SDS011;55230;42.602;23.470;2022-08-11T12:36:42;4.57;;;4.18;;
11052;SDS011;55230;42.602;23.470;2022-08-11T12:39:11;5.00;;;4.50;;
11052;SDS011;55230;42.602;23.470;2022-08-11T12:41:44;4.47;;;4.07;;
11052;SDS011;55230;42.602;23.470;2022-08-11T12:44:29;4.28;;;3.90;;
11052;SDS011;55230;42.602;23.470;2022-08-11T12:47:15;4.38;;;3.97;;
11052;SDS011;55230;42.602;23.470;2022-08-11T12:49:46;4.30;;;4.00;;
11052;SDS011;55230;42.602;23.470;2022-08-11T12:52:33;4.72;;;4.22;;
11052;SDS011;55230;42.602;23.470;2022-08-11T12:55:05;5.30;;;4.70;;
11052;SDS011;55230;42.602;23.470;2022-08-11T12:57:38;4.80;;;4.40;;
11052;SDS011;55230;42.602;23.470;2022-08-11T13:00:25;5.25;;;4.28;;
11052;SDS011;55230;42.602;23.470;2022-08-11T13:03:12;4.72;;;4.20;;
11052;SDS011;55230;42.602;23.470;2022-08-11T13:06:00;4.75;;;4.30;;
11052;SDS011;55230;42.602;23.470;2022-08-11T13:08:29;5.43;;;4.93;;
11052;SDS011;55230;42.602;23.470;2022-08-11T13:10:59;5.68;;;4.80;;
11052;SDS011;55230;42.602;23.470;2022-08-11T13:13:47;4.50;;;4.10;;
11052;SDS011;55230;42.602;23.470;2022-08-11T13:16:16;4.80;;;4.25;;
11052;SDS011;55230;42.602;23.470;2022-08-11T13:18:44;4.70;;;4.15;;
11052;SDS011;55230;42.602;23.470;2022-08-11T13:21:12;4.70;;;4.35;;
11052;SDS011;55230;42.602;23.470;2022-08-11T13:23:40;5.07;;;4.32;;
11052;SDS011;55230;42.602;23.470;2022-08-11T13:26:07;4.40;;;4.10;;
11052;SDS011;55230;42.602;23.470;2022-08-11T13:28:35;4.88;;;4.35;;
11052;SDS011;55230;42.602;23.470;2022-08-11T13:31:04;5.13;;;4.40;;
11052;SDS011;55230;42.602;23.470;2022-08-11T13:33:39;4.82;;;4.43;;
11052;SDS011;55230;42.602;23.470;2022-08-11T13:36:07;5.95;;;4.63;;
11052;SDS011;55230;42.602;23.470;2022-08-11T13:38:35;4.72;;;4.32;;
11052;SDS011;55230;42.602;23.470;2022-08-11T13:41:04;4.50;;;4.10;;
11052;SDS011;55230;42.602;23.470;2022-08-11T13:43:52;4.53;;;4.00;;
11052;SDS011;55230;42.602;23.470;2022-08-11T13:46:22;5.60;;;3.85;;
11052;SDS011;55230;42.602;23.470;2022-08-11T13:48:50;4.57;;;4.25;;
11052;SDS011;55230;42.602;23.470;2022-08-11T13:51:20;4.47;;;4.07;;
11052;SDS011;55230;42.602;23.470;2022-08-11T13:53:59;4.28;;;3.97;;
11052;SDS011;55230;42.602;23.470;2022-08-11T13:56:27;4.32;;;4.00;;
11052;SDS011;55230;42.602;23.470;2022-08-11T13:58:55;5.80;;;3.70;;
11052;SDS011;55230;42.602;23.470;2022-08-11T14:01:25;4.30;;;3.97;;
11052;SDS011;55230;42.602;23.470;2022-08-11T14:03:56;3.65;;;3.35;;
11052;SDS011;55230;42.602;23.470;2022-08-11T14:06:28;4.30;;;3.90;;
11052;SDS011;55230;42.602;23.470;2022-08-11T14:08:55;4.05;;;3.63;;
11052;SDS011;55230;42.602;23.470;2022-08-11T14:11:24;4.00;;;3.70;;
11052;SDS011;55230;42.602;23.470;2022-08-11T14:14:11;3.75;;;3.45;;
11052;SDS011;55230;42.602;23.470;2022-08-11T14:16:47;3.90;;;3.60;;
11052;SDS011;55230;42.602;23.470;2022-08-11T14:19:17;3.92;;;3.63;;
11052;SDS011;55230;42.602;23.470;2022-08-11T14:21:49;3.58;;;3.28;;
11052;SDS011;55230;42.602;23.470;2022-08-11T14:24:32;4.60;;;3.63;;
11052;SDS011;55230;42.602;23.470;2022-08-11T14:27:02;3.88;;;3.58;;
11052;SDS011;55230;42.602;23.470;2022-08-11T14:29:30;3.78;;;3.47;;
11052;SDS011;55230;42.602;23.470;2022-08-11T14:32:04;3.88;;;3.58;;
11052;SDS011;55230;42.602;23.470;2022-08-11T14:34:33;3.92;;;3.63;;
11052;SDS011;55230;42.602;23.470;2022-08-11T14:37:03;3.85;;;3.58;;
11052;SDS011;55230;42.602;23.470;2022-08-11T14:39:33;3.50;;;3.20;;
11052;SDS011;55230;42.602;23.470;2022-08-11T14:42:04;4.30;;;3.97;;
11052;SDS011;55230;42.602;23.470;2022-08-11T14:44:51;4.22;;;3.83;;
11052;SDS011;55230;42.602;23.470;2022-08-11T14:47:39;4.03;;;3.72;;
11052;SDS011;55230;42.602;23.470;2022-08-11T14:50:10;4.07;;;3.70;;
11052;SDS011;55230;42.602;23.470;2022-08-11T14:52:43;4.38;;;3.97;;
11052;SDS011;55230;42.602;23.470;2022-08-11T14:55:14;4.53;;;3.95;;
11052;SDS011;55230;42.602;23.470;2022-08-11T14:57:59;5.45;;;3.88;;
11052;SDS011;55230;42.602;23.470;2022-08-11T15:00:27;4.38;;;3.97;;
11052;SDS011;55230;42.602;23.470;2022-08-11T15:02:56;4.20;;;3.90;;
11052;SDS011;55230;42.602;23.470;2022-08-11T15:05:36;4.18;;;3.78;;
11052;SDS011;55230;42.602;23.470;2022-08-11T15:08:05;3.90;;;3.50;;
11052;SDS011;55230;42.602;23.470;2022-08-11T15:10:33;4.22;;;3.50;;
11052;SDS011;55230;42.602;23.470;2022-08-11T15:13:01;4.00;;;3.70;;
11052;SDS011;55230;42.602;23.470;2022-08-11T15:15:29;3.45;;;3.20;;
11052;SDS011;55230;42.602;23.470;2022-08-11T15:18:16;4.25;;;3.63;;
11052;SDS011;55230;42.602;23.470;2022-08-11T15:20:45;3.40;;;3.15;;
11052;SDS011;55230;42.602;23.470;2022-08-11T15:23:29;4.32;;;3.65;;
11052;SDS011;55230;42.602;23.470;2022-08-11T15:26:15;3.50;;;3.30;;
11052;SDS011;55230;42.602;23.470;2022-08-11T15:29:04;3.90;;;3.50;;
11052;SDS011;55230;42.602;23.470;2022-08-11T15:31:49;4.50;;;3.47;;
11052;SDS011;55230;42.602;23.470;2022-08-11T15:34:36;4.00;;;3.60;;
11052;SDS011;55230;42.602;23.470;2022-08-11T15:37:22;4.32;;;3.60;;
11052;SDS011;55230;42.602;23.470;2022-08-11T15:39:59;4.50;;;3.80;;
11052;SDS011;55230;42.602;23.470;2022-08-11T15:42:50;4.20;;;3.80;;
11052;SDS011;55230;42.602;23.470;2022-08-11T15:45:41;4.10;;;3.80;;
11052;SDS011;55230;42.602;23.470;2022-08-11T15:48:18;4.30;;;4.00;;
11052;SDS011;55230;42.602;23.470;2022-08-11T15:50:53;4.25;;;3.95;;
11052;SDS011;55230;42.602;23.470;2022-08-11T15:53:24;3.67;;;3.38;;
11052;SDS011;55230;42.602;23.470;2022-08-11T15:55:55;7.05;;;3.90;;
11052;SDS011;55230;42.602;23.470;2022-08-11T15:58:24;4.10;;;3.55;;
11052;SDS011;55230;42.602;23.470;2022-08-11T16:01:14;5.00;;;3.83;;
11052;SDS011;55230;42.602;23.470;2022-08-11T16:04:02;3.85;;;3.55;;
11052;SDS011;55230;42.602;23.470;2022-08-11T16:06:48;4.18;;;3.78;;
11052;SDS011;55230;42.602;23.470;2022-08-11T16:09:19;4.80;;;3.88;;
11052;SDS011;55230;42.602;23.470;2022-08-11T16:11:50;3.85;;;3.55;;
11052;SDS011;55230;42.602;23.470;2022-08-11T16:14:19;3.67;;;3.35;;
11052;SDS011;55230;42.602;23.470;2022-08-11T16:17:06;4.10;;;3.80;;
11052;SDS011;55230;42.602;23.470;2022-08-11T16:19:36;6.55;;;3.75;;
11052;SDS011;55230;42.602;23.470;2022-08-11T16:22:09;3.75;;;3.45;;
11052;SDS011;55230;42.602;23.470;2022-08-11T16:24:39;4.35;;;4.00;;
11052;SDS011;55230;42.602;23.470;2022-08-11T16:27:10;3.97;;;3.67;;
11052;SDS011;55230;42.602;23.470;2022-08-11T16:29:39;4.30;;;4.00;;
11052;SDS011;55230;42.602;23.470;2022-08-11T16:32:10;4.32;;;3.92;;
11052;SDS011;55230;42.602;23.470;2022-08-11T16:34:43;4.17;;;3.77;;
11052;SDS011;55230;42.602;23.470;2022-08-11T16:37:33;4.13;;;3.80;;